createdAt,value
2017-01-30T00:00:13.753Z,2.36
2017-01-30T00:00:54.314Z,2.44
2017-01-30T00:01:34.991Z,2.33
2017-01-30T00:02:15.672Z,2.44
2017-01-30T00:02:56.369Z,2.33
2017-01-30T00:03:36.933Z,2.43
2017-01-30T00:04:17.590Z,2.33
2017-01-30T00:04:58.323Z,2.36
2017-01-30T00:05:38.894Z,2.43
2017-01-30T00:06:19.547Z,2.39
2017-01-30T00:07:00.282Z,2.36
2017-01-30T00:07:40.858Z,2.46
2017-01-30T00:08:21.526Z,2.36
2017-01-30T00:09:02.168Z,2.36
2017-01-30T00:09:42.714Z,2.29
2017-01-30T00:10:23.389Z,2.36
2017-01-30T00:11:03.942Z,2.38
2017-01-30T00:11:44.598Z,2.39
2017-01-30T00:12:25.219Z,2.32
2017-01-30T00:13:05.784Z,2.43
2017-01-30T00:13:46.522Z,2.35
2017-01-30T00:14:27.259Z,2.33
2017-01-30T00:15:07.884Z,2.33
2017-01-30T00:15:48.582Z,2.39
2017-01-30T00:16:29.319Z,2.39
2017-01-30T00:17:09.901Z,2.38
2017-01-30T00:17:50.649Z,2.43
2017-01-30T00:18:31.383Z,2.46
2017-01-30T00:19:12.143Z,2.35
2017-01-30T00:19:52.788Z,2.39
2017-01-30T00:20:33.544Z,2.36
2017-01-30T00:21:14.298Z,2.32
2017-01-30T00:21:54.873Z,2.32
2017-01-30T00:22:35.547Z,2.35
2017-01-30T00:23:16.199Z,2.38
2017-01-30T00:23:56.928Z,2.35
2017-01-30T00:24:37.627Z,2.33
2017-01-30T00:25:18.320Z,2.39
2017-01-30T00:25:58.900Z,2.33
2017-01-30T00:26:39.556Z,2.49
2017-01-30T00:27:20.263Z,2.38
2017-01-30T00:28:00.854Z,2.47
2017-01-30T00:28:41.408Z,2.44
2017-01-30T00:29:22.091Z,2.46
2017-01-30T00:30:02.670Z,2.49
2017-01-30T00:30:43.343Z,2.46
2017-01-30T00:31:23.960Z,2.53
2017-01-30T00:32:04.582Z,2.47
2017-01-30T00:32:45.254Z,2.54
2017-01-30T00:33:25.948Z,2.43
2017-01-30T00:34:06.538Z,2.51
2017-01-30T00:34:47.281Z,2.46
2017-01-30T00:35:27.965Z,2.51
2017-01-30T00:36:08.661Z,2.49
2017-01-30T00:36:49.235Z,2.51
2017-01-30T00:37:29.994Z,2.53
2017-01-30T00:38:10.681Z,2.49
2017-01-30T00:38:51.239Z,2.51
2017-01-30T00:39:31.955Z,2.5
2017-01-30T00:40:12.635Z,2.54
2017-01-30T00:40:53.343Z,2.54
2017-01-30T00:41:33.905Z,2.56
2017-01-30T00:42:14.592Z,2.56
2017-01-30T00:42:55.351Z,2.56
2017-01-30T00:43:36.065Z,2.51
2017-01-30T00:44:16.632Z,2.51
2017-01-30T00:44:57.376Z,2.5
2017-01-30T00:45:37.995Z,2.56
2017-01-30T00:46:18.575Z,2.57
2017-01-30T00:46:59.135Z,2.56
2017-01-30T00:47:39.802Z,2.5
2017-01-30T00:48:20.405Z,2.56
2017-01-30T00:49:00.986Z,2.64
2017-01-30T00:49:41.550Z,2.5
2017-01-30T00:50:22.118Z,2.51
2017-01-30T00:51:02.755Z,2.5
2017-01-30T00:51:43.427Z,2.53
2017-01-30T00:52:24.067Z,2.57
2017-01-30T00:53:04.820Z,2.5
2017-01-30T00:53:45.467Z,2.51
2017-01-30T00:54:26.124Z,2.56
2017-01-30T00:55:06.775Z,2.53
2017-01-30T00:55:47.462Z,2.53
2017-01-30T00:56:28.165Z,2.6
2017-01-30T00:57:08.755Z,2.5
2017-01-30T00:57:49.390Z,2.5
2017-01-30T00:58:30.122Z,2.54
2017-01-30T00:59:10.894Z,2.61
2017-01-30T00:59:51.623Z,2.51
2017-01-30T01:00:32.180Z,2.64
2017-01-30T01:01:12.758Z,2.65
2017-01-30T01:01:53.390Z,2.61
2017-01-30T01:02:33.944Z,2.61
2017-01-30T01:03:14.610Z,2.54
2017-01-30T01:03:55.340Z,2.64
2017-01-30T01:04:36.092Z,2.61
2017-01-30T01:05:16.847Z,2.6
2017-01-30T01:05:57.507Z,2.51
2017-01-30T01:06:38.248Z,2.54
2017-01-30T01:07:19.013Z,2.65
2017-01-30T01:07:59.765Z,2.6
2017-01-30T01:08:40.524Z,2.64
2017-01-30T01:09:21.096Z,2.53
2017-01-30T01:10:01.835Z,2.67
2017-01-30T01:10:42.581Z,2.65
2017-01-30T01:11:23.146Z,2.61
2017-01-30T01:12:03.898Z,2.64
2017-01-30T01:12:44.650Z,2.65
2017-01-30T01:13:25.210Z,2.64
2017-01-30T01:14:05.973Z,2.64
2017-01-30T01:14:46.655Z,2.62
2017-01-30T01:15:27.260Z,2.65
2017-01-30T01:16:07.829Z,2.61
2017-01-30T01:16:48.489Z,2.65
2017-01-30T01:17:29.085Z,2.67
2017-01-30T01:18:09.874Z,2.62
2017-01-30T01:18:50.441Z,2.65
2017-01-30T01:19:31.200Z,2.64
2017-01-30T01:20:11.932Z,2.67
2017-01-30T01:20:52.655Z,2.65
2017-01-30T01:21:33.391Z,2.64
2017-01-30T01:22:14.140Z,2.64
2017-01-30T01:22:54.900Z,2.62
2017-01-30T01:23:35.660Z,2.67
2017-01-30T01:24:16.362Z,2.67
2017-01-30T01:24:56.914Z,2.62
2017-01-30T01:25:37.687Z,2.57
2017-01-30T01:26:18.236Z,2.65
2017-01-30T01:26:58.982Z,2.65
2017-01-30T01:27:39.679Z,2.64
2017-01-30T01:28:20.385Z,2.68
2017-01-30T01:29:00.932Z,2.65
2017-01-30T01:29:41.613Z,2.6
2017-01-30T01:30:22.356Z,2.62
2017-01-30T01:31:03.111Z,2.62
2017-01-30T01:31:43.770Z,2.57
2017-01-30T01:32:24.506Z,2.6
2017-01-30T01:33:05.266Z,2.74
2017-01-30T01:33:46.016Z,2.64
2017-01-30T01:34:26.791Z,2.74
2017-01-30T01:35:07.526Z,2.74
2017-01-30T01:35:48.290Z,2.69
2017-01-30T01:36:28.939Z,2.65
2017-01-30T01:37:09.709Z,2.72
2017-01-30T01:37:50.447Z,2.72
2017-01-30T01:38:31.208Z,2.75
2017-01-30T01:39:11.952Z,2.68
2017-01-30T01:39:52.708Z,2.71
2017-01-30T01:40:33.275Z,2.68
2017-01-30T01:41:14.031Z,2.75
2017-01-30T01:41:54.779Z,2.72
2017-01-30T01:42:35.321Z,2.69
2017-01-30T01:43:15.996Z,2.69
2017-01-30T01:43:56.727Z,2.69
2017-01-30T01:44:37.283Z,2.74
2017-01-30T01:45:18.039Z,2.74
2017-01-30T01:45:58.787Z,2.72
2017-01-30T01:46:39.466Z,2.83
2017-01-30T01:47:20.118Z,2.79
2017-01-30T01:48:00.862Z,2.8
2017-01-30T01:48:41.536Z,2.82
2017-01-30T01:49:22.183Z,2.74
2017-01-30T01:50:02.916Z,2.83
2017-01-30T01:50:43.499Z,2.82
2017-01-30T01:51:24.140Z,2.77
2017-01-30T01:52:04.774Z,2.86
2017-01-30T01:52:45.444Z,2.86
2017-01-30T01:53:26.096Z,2.86
2017-01-30T01:54:06.868Z,2.89
2017-01-30T01:54:47.604Z,2.79
2017-01-30T01:55:28.352Z,2.85
2017-01-30T01:56:09.121Z,2.82
2017-01-30T01:56:49.875Z,2.83
2017-01-30T01:57:30.638Z,2.83
2017-01-30T01:58:11.378Z,2.83
2017-01-30T01:58:52.132Z,2.8
2017-01-30T01:59:32.870Z,2.79
2017-01-30T02:00:13.437Z,2.82
2017-01-30T02:00:54.175Z,2.89
2017-01-30T02:01:34.935Z,2.82
2017-01-30T02:02:15.481Z,2.85
2017-01-30T02:02:56.051Z,2.8
2017-01-30T02:03:36.692Z,2.77
2017-01-30T02:04:17.341Z,2.83
2017-01-30T02:04:57.916Z,2.82
2017-01-30T02:05:38.597Z,2.83
2017-01-30T02:06:19.355Z,2.79
2017-01-30T02:07:00.052Z,2.89
2017-01-30T02:07:40.602Z,2.93
2017-01-30T02:08:21.382Z,2.95
2017-01-30T02:09:02.100Z,2.85
2017-01-30T02:09:42.767Z,2.9
2017-01-30T02:10:23.342Z,2.95
2017-01-30T02:11:04.088Z,2.95
2017-01-30T02:11:44.795Z,2.93
2017-01-30T02:12:25.583Z,2.97
2017-01-30T02:13:06.141Z,2.95
2017-01-30T02:13:46.913Z,2.97
2017-01-30T02:14:27.599Z,3
2017-01-30T02:15:08.297Z,2.95
2017-01-30T02:15:48.871Z,2.97
2017-01-30T02:16:29.629Z,2.98
2017-01-30T02:17:10.425Z,2.95
2017-01-30T02:17:51.115Z,2.97
2017-01-30T02:18:31.687Z,3.01
2017-01-30T02:19:12.440Z,3.03
2017-01-30T02:19:53.137Z,3.01
2017-01-30T02:20:33.928Z,2.98
2017-01-30T02:21:14.496Z,2.97
2017-01-30T02:21:55.277Z,3.08
2017-01-30T02:22:36.056Z,2.95
2017-01-30T02:23:16.750Z,3.05
2017-01-30T02:23:57.297Z,3
2017-01-30T02:24:38.068Z,3.08
2017-01-30T02:25:18.718Z,3.08
2017-01-30T02:25:59.372Z,3.04
2017-01-30T02:26:40.125Z,3.07
2017-01-30T02:27:20.896Z,2.97
2017-01-30T02:28:01.647Z,3.11
2017-01-30T02:28:42.396Z,3.13
2017-01-30T02:29:23.141Z,3.04
2017-01-30T02:30:03.905Z,3.05
2017-01-30T02:30:44.595Z,3.1
2017-01-30T02:31:25.294Z,3.04
2017-01-30T02:32:05.964Z,3.05
2017-01-30T02:32:47.535Z,3.13
2017-01-30T02:33:28.199Z,3.1
2017-01-30T02:34:08.848Z,3.18
2017-01-30T02:34:49.584Z,3.04
2017-01-30T02:35:30.137Z,3.16
2017-01-30T02:36:10.909Z,3.1
2017-01-30T02:36:51.645Z,3.21
2017-01-30T02:37:32.195Z,3.19
2017-01-30T02:38:12.988Z,3.22
2017-01-30T02:38:53.667Z,3.22
2017-01-30T02:39:34.362Z,3.23
2017-01-30T02:40:14.916Z,3.23
2017-01-30T02:40:55.689Z,3.22
2017-01-30T02:41:36.387Z,3.34
2017-01-30T02:42:17.074Z,3.31
2017-01-30T02:42:57.641Z,3.23
2017-01-30T02:43:38.403Z,3.32
2017-01-30T02:44:18.982Z,3.32
2017-01-30T02:44:59.709Z,3.31
2017-01-30T02:45:40.463Z,3.4
2017-01-30T02:46:21.109Z,3.31
2017-01-30T02:47:01.775Z,3.41
2017-01-30T02:47:42.417Z,3.42
2017-01-30T02:48:23.077Z,3.37
2017-01-30T02:49:03.734Z,3.44
2017-01-30T02:49:44.360Z,3.47
2017-01-30T02:50:25.054Z,3.4
2017-01-30T02:51:05.786Z,3.44
2017-01-30T02:51:46.439Z,3.45
2017-01-30T02:52:27.076Z,3.5
2017-01-30T02:53:07.749Z,3.56
2017-01-30T02:53:48.391Z,3.55
2017-01-30T02:54:29.154Z,3.53
2017-01-30T02:55:09.733Z,3.53
2017-01-30T02:55:50.336Z,3.63
2017-01-30T02:56:30.904Z,3.6
2017-01-30T02:57:11.558Z,3.58
2017-01-30T02:57:52.140Z,3.6
2017-01-30T02:58:32.717Z,3.63
2017-01-30T02:59:13.312Z,3.65
2017-01-30T02:59:54.088Z,3.68
2017-01-30T03:00:34.733Z,3.68
2017-01-30T03:01:15.373Z,3.73
2017-01-30T03:01:56.017Z,3.74
2017-01-30T03:02:36.667Z,3.7
2017-01-30T03:03:17.452Z,3.84
2017-01-30T03:03:58.194Z,3.7
2017-01-30T03:04:38.946Z,3.73
2017-01-30T03:05:19.715Z,3.77
2017-01-30T03:06:00.459Z,3.76
2017-01-30T03:06:41.229Z,3.86
2017-01-30T03:07:21.970Z,3.8
2017-01-30T03:08:02.725Z,3.78
2017-01-30T03:08:43.479Z,3.86
2017-01-30T03:09:24.243Z,3.87
2017-01-30T03:10:04.994Z,3.84
2017-01-30T03:10:45.658Z,3.83
2017-01-30T03:11:26.315Z,3.86
2017-01-30T03:12:06.883Z,3.83
2017-01-30T03:12:47.500Z,3.86
2017-01-30T03:13:28.161Z,3.87
2017-01-30T03:14:08.822Z,3.81
2017-01-30T03:14:49.483Z,3.84
2017-01-30T03:15:30.140Z,3.84
2017-01-30T03:16:10.775Z,3.86
2017-01-30T03:16:51.436Z,3.87
2017-01-30T03:17:32.050Z,3.91
2017-01-30T03:18:12.711Z,3.87
2017-01-30T03:18:53.372Z,3.84
2017-01-30T03:19:34.038Z,3.86
2017-01-30T03:20:14.675Z,3.88
2017-01-30T03:20:55.325Z,3.94
2017-01-30T03:21:35.978Z,3.98
2017-01-30T03:22:16.629Z,4.02
2017-01-30T03:22:57.273Z,3.91
2017-01-30T03:23:37.927Z,3.99
2017-01-30T03:24:18.632Z,3.91
2017-01-30T03:24:59.233Z,3.94
2017-01-30T03:25:39.785Z,4.01
2017-01-30T03:26:20.342Z,3.95
2017-01-30T03:27:00.980Z,3.94
2017-01-30T03:27:41.543Z,3.95
2017-01-30T03:28:22.206Z,3.96
2017-01-30T03:29:02.836Z,4.01
2017-01-30T03:29:43.401Z,3.96
2017-01-30T03:30:24.057Z,3.96
2017-01-30T03:31:04.705Z,3.94
2017-01-30T03:31:45.278Z,4.02
2017-01-30T03:32:25.906Z,3.98
2017-01-30T03:33:06.546Z,3.99
2017-01-30T03:33:47.096Z,4.01
2017-01-30T03:34:27.653Z,3.95
2017-01-30T03:35:08.306Z,3.95
2017-01-30T03:35:48.978Z,4.01
2017-01-30T03:36:29.613Z,3.98
2017-01-30T03:37:10.287Z,3.91
2017-01-30T03:37:50.937Z,3.98
2017-01-30T03:38:31.602Z,4.01
2017-01-30T03:39:12.242Z,4.01
2017-01-30T03:39:52.880Z,3.96
2017-01-30T03:40:33.447Z,3.98
2017-01-30T03:41:14.100Z,3.99
2017-01-30T03:41:54.737Z,4.04
2017-01-30T03:42:35.299Z,4.01
2017-01-30T03:43:15.962Z,3.99
2017-01-30T03:43:56.595Z,3.95
2017-01-30T03:44:37.173Z,3.99
2017-01-30T03:45:17.807Z,4.01
2017-01-30T03:45:58.457Z,3.99
2017-01-30T03:46:39.114Z,4.01
2017-01-30T03:47:19.763Z,4.01
2017-01-30T03:48:00.398Z,3.96
2017-01-30T03:48:41.075Z,4.01
2017-01-30T03:49:21.723Z,3.94
2017-01-30T03:50:02.376Z,3.94
2017-01-30T03:50:43.032Z,3.96
2017-01-30T03:51:23.681Z,3.98
2017-01-30T03:52:04.319Z,3.95
2017-01-30T03:52:44.992Z,3.95
2017-01-30T03:53:25.637Z,3.96
2017-01-30T03:54:06.276Z,3.98
2017-01-30T03:54:46.845Z,3.99
2017-01-30T03:55:27.489Z,3.98
2017-01-30T03:56:08.152Z,3.96
2017-01-30T03:56:48.805Z,3.99
2017-01-30T03:57:29.460Z,3.98
2017-01-30T03:58:10.109Z,3.96
2017-01-30T03:58:50.767Z,3.98
2017-01-30T03:59:31.416Z,4.01
2017-01-30T04:00:12.068Z,4.04
2017-01-30T04:00:52.725Z,3.98
2017-01-30T04:01:33.372Z,3.98
2017-01-30T04:02:14.028Z,4.02
2017-01-30T04:02:54.682Z,4.04
2017-01-30T04:03:35.334Z,3.96
2017-01-30T04:04:15.999Z,3.96
2017-01-30T04:04:56.695Z,3.96
2017-01-30T04:05:37.389Z,3.94
2017-01-30T04:06:17.949Z,4.01
2017-01-30T04:06:58.600Z,3.99
2017-01-30T04:07:39.203Z,3.99
2017-01-30T04:08:19.797Z,3.98
2017-01-30T04:09:00.378Z,3.99
2017-01-30T04:09:41.008Z,4.04
2017-01-30T04:10:21.610Z,3.98
2017-01-30T04:11:02.185Z,3.95
2017-01-30T04:11:42.757Z,3.99
2017-01-30T04:12:23.404Z,3.98
2017-01-30T04:13:04.117Z,3.91
2017-01-30T04:13:44.697Z,3.96
2017-01-30T04:14:25.262Z,4.04
2017-01-30T04:15:05.915Z,4.01
2017-01-30T04:15:46.563Z,4.04
2017-01-30T04:16:27.242Z,4.01
2017-01-30T04:17:07.856Z,4.04
2017-01-30T04:17:48.540Z,4.04
2017-01-30T04:18:29.182Z,4.01
2017-01-30T04:19:09.835Z,3.99
2017-01-30T04:19:50.495Z,3.98
2017-01-30T04:20:31.148Z,3.95
2017-01-30T04:21:11.796Z,3.98
2017-01-30T04:21:52.474Z,3.96
2017-01-30T04:22:33.098Z,3.96
2017-01-30T04:23:13.756Z,3.95
2017-01-30T04:23:54.404Z,3.94
2017-01-30T04:24:34.955Z,3.94
2017-01-30T04:25:15.617Z,4.02
2017-01-30T04:25:56.265Z,3.94
2017-01-30T04:26:36.830Z,4.08
2017-01-30T04:27:17.482Z,4.05
2017-01-30T04:27:58.093Z,4.04
2017-01-30T04:28:38.655Z,4.08
2017-01-30T04:29:19.305Z,4.01
2017-01-30T04:29:59.950Z,4.02
2017-01-30T04:30:40.510Z,4.1
2017-01-30T04:31:21.162Z,4.06
2017-01-30T04:32:01.756Z,4.1
2017-01-30T04:32:42.317Z,4.05
2017-01-30T04:33:23.018Z,4.12
2017-01-30T04:34:04.641Z,4.12
2017-01-30T04:34:45.237Z,4.02
2017-01-30T04:35:26.914Z,4.1
2017-01-30T04:36:07.605Z,4.1
2017-01-30T04:36:48.248Z,4.02
2017-01-30T04:37:28.872Z,4.06
2017-01-30T04:38:09.524Z,4.08
2017-01-30T04:38:50.178Z,4.14
2017-01-30T04:39:30.832Z,4.14
2017-01-30T04:40:11.509Z,4.12
2017-01-30T04:40:52.163Z,4.1
2017-01-30T04:41:32.815Z,4.13
2017-01-30T04:42:13.471Z,4.1
2017-01-30T04:42:54.121Z,4.08
2017-01-30T04:43:34.777Z,4.16
2017-01-30T04:44:15.428Z,4.12
2017-01-30T04:44:56.087Z,4.1
2017-01-30T04:45:36.736Z,4.06
2017-01-30T04:46:17.387Z,4.13
2017-01-30T04:46:58.040Z,4.13
2017-01-30T04:47:38.694Z,4.17
2017-01-30T04:48:19.344Z,4.16
2017-01-30T04:48:59.916Z,4.17
2017-01-30T04:49:40.480Z,4.2
2017-01-30T04:50:21.128Z,4.16
2017-01-30T04:51:01.811Z,4.08
2017-01-30T04:51:42.377Z,4.19
2017-01-30T04:52:22.953Z,4.16
2017-01-30T04:53:03.608Z,4.13
2017-01-30T04:53:44.161Z,4.1
2017-01-30T04:54:24.783Z,4.13
2017-01-30T04:55:05.436Z,4.14
2017-01-30T04:55:46.090Z,4.1
2017-01-30T04:56:26.750Z,4.2
2017-01-30T04:57:07.416Z,4.16
2017-01-30T04:57:48.055Z,4.16
2017-01-30T04:58:28.702Z,4.23
2017-01-30T04:59:09.354Z,4.22
2017-01-30T04:59:50.008Z,4.13
2017-01-30T05:00:30.688Z,4.2
2017-01-30T05:01:11.352Z,4.14
2017-01-30T05:01:51.965Z,4.12
2017-01-30T05:02:32.621Z,4.2
2017-01-30T05:03:13.179Z,4.2
2017-01-30T05:03:53.873Z,4.2
2017-01-30T05:04:34.485Z,4.16
2017-01-30T05:05:15.119Z,4.12
2017-01-30T05:05:55.780Z,4.16
2017-01-30T05:06:36.356Z,4.23
2017-01-30T05:07:17.007Z,4.1
2017-01-30T05:07:57.614Z,4.2
2017-01-30T05:08:38.291Z,4.19
2017-01-30T05:09:18.857Z,4.14
2017-01-30T05:09:59.511Z,4.14
2017-01-30T05:10:40.198Z,4.16
2017-01-30T05:11:20.825Z,4.14
2017-01-30T05:12:01.476Z,4.19
2017-01-30T05:12:42.156Z,4.17
2017-01-30T05:13:22.772Z,4.24
2017-01-30T05:14:03.423Z,4.23
2017-01-30T05:14:44.095Z,4.31
2017-01-30T05:15:24.718Z,4.26
2017-01-30T05:16:05.274Z,4.23
2017-01-30T05:16:45.965Z,4.14
2017-01-30T05:17:26.524Z,4.22
2017-01-30T05:18:07.168Z,4.32
2017-01-30T05:18:47.775Z,4.17
2017-01-30T05:19:28.340Z,4.31
2017-01-30T05:20:08.996Z,4.14
2017-01-30T05:20:49.587Z,4.17
2017-01-30T05:21:30.202Z,4.32
2017-01-30T05:22:10.745Z,4.32
2017-01-30T05:22:51.382Z,4.14
2017-01-30T05:23:31.935Z,4.19
2017-01-30T05:24:12.600Z,4.19
2017-01-30T05:24:53.193Z,4.19
2017-01-30T05:25:33.846Z,4.14
2017-01-30T05:26:14.453Z,4.19
2017-01-30T05:26:55.112Z,4.16
2017-01-30T05:27:35.812Z,4.17
2017-01-30T05:28:16.451Z,4.19
2017-01-30T05:28:57.136Z,4.17
2017-01-30T05:29:37.756Z,4.2
2017-01-30T05:30:18.409Z,4.17
2017-01-30T05:30:59.038Z,4.22
2017-01-30T05:31:39.717Z,4.22
2017-01-30T05:32:20.373Z,4.14
2017-01-30T05:33:01.024Z,4.31
2017-01-30T05:33:41.677Z,4.17
2017-01-30T05:34:22.325Z,4.3
2017-01-30T05:35:03.023Z,4.19
2017-01-30T05:35:43.688Z,4.28
2017-01-30T05:36:24.263Z,4.31
2017-01-30T05:37:04.941Z,4.17
2017-01-30T05:37:45.638Z,4.26
2017-01-30T05:38:26.331Z,4.24
2017-01-30T05:39:06.894Z,4.26
2017-01-30T05:39:47.547Z,4.32
2017-01-30T05:40:28.246Z,4.31
2017-01-30T05:41:08.941Z,4.32
2017-01-30T05:41:49.522Z,4.26
2017-01-30T05:42:30.162Z,4.28
2017-01-30T05:43:10.888Z,4.31
2017-01-30T05:43:51.555Z,4.3
2017-01-30T05:44:32.121Z,4.3
2017-01-30T05:45:12.762Z,4.37
2017-01-30T05:45:53.335Z,4.3
2017-01-30T05:46:33.976Z,4.38
2017-01-30T05:47:14.681Z,4.38
2017-01-30T05:47:55.372Z,4.31
2017-01-30T05:48:35.958Z,4.37
2017-01-30T05:49:16.599Z,4.37
2017-01-30T05:49:57.305Z,4.34
2017-01-30T05:50:37.985Z,4.37
2017-01-30T05:51:18.543Z,4.32
2017-01-30T05:51:59.172Z,4.34
2017-01-30T05:52:39.736Z,4.34
2017-01-30T05:53:20.417Z,4.38
2017-01-30T05:54:01.005Z,4.32
2017-01-30T05:54:41.650Z,4.34
2017-01-30T05:55:22.685Z,4.31
2017-01-30T05:56:06.846Z,4.42
2017-01-30T05:56:47.470Z,4.34
2017-01-30T05:57:28.183Z,4.38
2017-01-30T05:58:08.879Z,4.37
2017-01-30T05:58:49.532Z,4.38
2017-01-30T05:59:30.167Z,4.38
2017-01-30T06:00:10.837Z,4.35
2017-01-30T06:00:51.485Z,4.37
2017-01-30T06:01:32.143Z,4.38
2017-01-30T06:02:12.784Z,4.35
2017-01-30T06:02:53.449Z,4.38
2017-01-30T06:03:34.094Z,4.35
2017-01-30T06:04:14.738Z,4.37
2017-01-30T06:04:55.392Z,4.37
2017-01-30T06:05:36.099Z,4.37
2017-01-30T06:06:16.797Z,4.38
2017-01-30T06:06:57.378Z,4.42
2017-01-30T06:07:38.003Z,4.38
2017-01-30T06:08:18.698Z,4.37
2017-01-30T06:08:59.273Z,4.38
2017-01-30T06:09:39.957Z,4.31
2017-01-30T06:10:20.528Z,4.37
2017-01-30T06:11:01.161Z,4.37
2017-01-30T06:11:41.814Z,4.4
2017-01-30T06:12:22.471Z,4.38
2017-01-30T06:13:04.147Z,4.41
2017-01-30T06:13:44.795Z,4.38
2017-01-30T06:14:25.456Z,4.31
2017-01-30T06:15:06.107Z,4.4
2017-01-30T06:15:46.761Z,4.38
2017-01-30T06:16:27.411Z,4.42
2017-01-30T06:17:09.086Z,4.38
2017-01-30T06:17:54.562Z,4.37
2017-01-30T06:18:35.169Z,4.38
2017-01-30T06:19:15.868Z,4.37
2017-01-30T06:19:57.513Z,4.42
2017-01-30T06:20:38.192Z,4.35
2017-01-30T06:21:20.890Z,4.37
2017-01-30T06:22:02.566Z,4.38
2017-01-30T06:22:44.251Z,4.41
2017-01-30T06:23:24.900Z,4.42
2017-01-30T06:24:05.579Z,4.45
2017-01-30T06:24:51.017Z,4.37
2017-01-30T06:25:31.720Z,4.35
2017-01-30T06:26:12.404Z,4.37
2017-01-30T06:26:52.972Z,4.4
2017-01-30T06:27:33.626Z,4.37
2017-01-30T06:28:14.311Z,4.41
2017-01-30T06:28:55.529Z,4.37
2017-01-30T06:29:36.097Z,4.38
2017-01-30T06:30:18.796Z,4.42
2017-01-30T06:31:00.473Z,4.41
2017-01-30T06:31:46.044Z,4.41
2017-01-30T06:32:27.681Z,4.41
2017-01-30T06:33:08.342Z,4.42
2017-01-30T06:33:48.990Z,4.41
2017-01-30T06:34:29.634Z,4.42
2017-01-30T06:35:10.305Z,4.35
2017-01-30T06:35:56.517Z,4.38
2017-01-30T06:36:37.129Z,4.4
2017-01-30T06:37:23.552Z,4.35
2017-01-30T06:38:04.206Z,4.42
2017-01-30T06:38:44.865Z,4.48
2017-01-30T06:39:27.558Z,4.45
2017-01-30T06:40:08.112Z,4.4
2017-01-30T06:40:48.696Z,4.37
2017-01-30T06:41:29.318Z,4.38
2017-01-30T06:42:09.952Z,4.4
2017-01-30T06:42:50.530Z,4.49
2017-01-30T06:43:31.170Z,4.45
2017-01-30T06:44:11.809Z,4.38
2017-01-30T06:44:52.389Z,4.42
2017-01-30T06:45:33.025Z,4.42
2017-01-30T06:46:13.720Z,4.44
2017-01-30T06:46:55.441Z,4.4
2017-01-30T06:47:36.025Z,4.35
2017-01-30T06:48:16.659Z,4.4
2017-01-30T06:48:58.416Z,4.4
2017-01-30T06:49:39.080Z,4.37
2017-01-30T06:50:19.630Z,4.38
2017-01-30T06:51:00.295Z,4.35
2017-01-30T06:51:41.987Z,4.41
2017-01-30T06:52:22.639Z,4.38
2017-01-30T06:53:03.291Z,4.35
2017-01-30T06:53:48.540Z,4.35
2017-01-30T06:54:29.197Z,4.4
2017-01-30T06:55:09.845Z,4.35
2017-01-30T06:55:50.536Z,4.35
2017-01-30T06:56:31.163Z,4.32
2017-01-30T06:57:11.815Z,4.4
2017-01-30T06:57:53.456Z,4.38
2017-01-30T06:58:34.108Z,4.35
2017-01-30T06:59:15.768Z,4.35
2017-01-30T06:59:56.430Z,4.35
2017-01-30T07:00:37.055Z,4.38
2017-01-30T07:01:17.612Z,4.35
2017-01-30T07:01:58.269Z,4.37
2017-01-30T07:02:38.884Z,4.34
2017-01-30T07:03:19.518Z,4.35
2017-01-30T07:04:00.090Z,4.38
2017-01-30T07:04:41.695Z,4.34
2017-01-30T07:05:22.355Z,4.34
2017-01-30T07:06:04.988Z,4.41
2017-01-30T07:06:45.647Z,4.35
2017-01-30T07:07:27.335Z,4.4
2017-01-30T07:08:08.997Z,4.37
2017-01-30T07:08:49.648Z,4.4
2017-01-30T07:09:30.310Z,4.35
2017-01-30T07:10:10.955Z,4.32
2017-01-30T07:10:52.636Z,4.37
2017-01-30T07:11:33.289Z,4.32
2017-01-30T07:12:13.949Z,4.37
2017-01-30T07:12:54.546Z,4.4
2017-01-30T07:13:35.249Z,4.32
2017-01-30T07:14:16.938Z,4.34
2017-01-30T07:14:57.578Z,4.41
2017-01-30T07:15:39.255Z,4.41
2017-01-30T07:16:19.911Z,4.4
2017-01-30T07:17:00.664Z,4.38
2017-01-30T07:17:41.329Z,4.37
2017-01-30T07:18:21.971Z,4.38
2017-01-30T07:19:03.611Z,4.38
2017-01-30T07:19:44.251Z,4.37
2017-01-30T07:20:24.898Z,4.38
2017-01-30T07:21:17.225Z,4.4
2017-01-30T07:21:57.784Z,4.35
2017-01-30T07:22:39.385Z,4.32
2017-01-30T07:23:21.049Z,4.4
2017-01-30T07:24:12.582Z,4.35
2017-01-30T07:24:54.274Z,4.35
2017-01-30T07:25:34.891Z,4.38
2017-01-30T07:26:15.483Z,4.4
2017-01-30T07:26:57.196Z,4.37
2017-01-30T07:27:38.901Z,4.41
2017-01-30T07:28:19.627Z,4.41
2017-01-30T07:29:00.422Z,4.35
2017-01-30T07:58:02.313Z,4.52
2017-01-30T07:58:42.868Z,4.53
2017-01-30T07:59:23.530Z,4.49
2017-01-30T08:00:04.227Z,4.45
2017-01-30T08:00:44.936Z,4.45
2017-01-30T08:01:25.632Z,4.5
2017-01-30T08:02:06.195Z,4.53
2017-01-30T08:02:47.876Z,4.45
2017-01-30T08:03:28.565Z,4.49
2017-01-30T08:04:09.236Z,4.52
2017-01-30T08:04:49.754Z,4.53
2017-01-30T08:05:30.370Z,4.55
2017-01-30T08:06:13.076Z,4.5
2017-01-30T08:06:53.634Z,4.48
2017-01-30T08:07:34.305Z,4.5
2017-01-30T08:08:14.931Z,4.52
2017-01-30T08:08:55.514Z,4.49
2017-01-30T08:09:36.138Z,4.5
2017-01-30T08:10:17.815Z,4.53
2017-01-30T08:10:58.339Z,4.5
2017-01-30T08:11:39.019Z,4.49
2017-01-30T08:12:19.717Z,4.5
2017-01-30T08:13:00.426Z,4.52
2017-01-30T08:13:40.994Z,4.58
2017-01-30T08:14:21.640Z,4.48
2017-01-30T08:15:03.349Z,4.49
2017-01-30T08:15:44.009Z,4.55
2017-01-30T08:16:24.657Z,4.55
2017-01-30T08:17:05.317Z,4.58
2017-01-30T08:17:45.968Z,4.58
2017-01-30T08:18:27.747Z,4.56
2017-01-30T08:19:09.463Z,4.59
2017-01-30T08:19:50.179Z,4.58
2017-01-30T08:20:30.986Z,4.63
2017-01-30T08:21:11.544Z,4.53
2017-01-30T08:21:52.165Z,4.62
2017-01-30T08:22:32.840Z,4.58
2017-01-30T08:23:13.474Z,4.56
2017-01-30T08:23:54.115Z,4.66
2017-01-30T08:24:34.758Z,4.53
2017-01-30T08:25:15.423Z,4.6
2017-01-30T08:25:56.068Z,4.66
2017-01-30T08:26:36.721Z,4.7
2017-01-30T08:27:17.369Z,4.63
2017-01-30T08:27:58.001Z,4.67
2017-01-30T08:28:38.726Z,4.67
2017-01-30T08:29:19.377Z,4.68
2017-01-30T08:30:00.032Z,4.66
2017-01-30T08:30:40.773Z,4.67
2017-01-30T08:31:21.442Z,4.62
2017-01-30T08:32:02.054Z,4.68
2017-01-30T08:32:42.819Z,4.7
2017-01-30T08:33:23.475Z,4.68
2017-01-30T08:34:04.243Z,4.6
2017-01-30T08:34:44.771Z,4.62
2017-01-30T08:35:25.436Z,4.7
2017-01-30T08:36:06.049Z,4.6
2017-01-30T08:36:46.709Z,4.68
2017-01-30T08:37:27.367Z,4.67
2017-01-30T08:38:08.010Z,4.63
2017-01-30T08:38:48.665Z,4.71
2017-01-30T08:39:29.335Z,4.63
2017-01-30T08:40:10.000Z,4.66
2017-01-30T08:40:50.691Z,4.67
2017-01-30T08:41:31.282Z,4.7
2017-01-30T08:42:11.944Z,4.66
2017-01-30T08:42:52.701Z,4.62
2017-01-30T08:43:33.425Z,4.63
2017-01-30T08:44:14.161Z,4.63
2017-01-30T08:44:54.820Z,4.71
2017-01-30T08:45:35.459Z,4.67
2017-01-30T08:46:16.110Z,4.63
2017-01-30T08:46:56.781Z,4.73
2017-01-30T08:47:37.459Z,4.67
2017-01-30T08:48:18.187Z,4.6
2017-01-30T08:48:58.815Z,4.63
2017-01-30T08:49:39.476Z,4.68
2017-01-30T08:50:20.141Z,4.68
2017-01-30T08:51:00.825Z,4.73
2017-01-30T08:51:41.658Z,4.73
2017-01-30T08:52:22.339Z,4.74
2017-01-30T08:53:03.182Z,4.68
2017-01-30T08:53:43.981Z,4.71
2017-01-30T08:54:24.760Z,4.71
2017-01-30T08:55:05.402Z,4.74
2017-01-30T08:55:48.197Z,4.74
2017-01-30T08:56:29.008Z,4.74
2017-01-30T08:57:09.843Z,4.74
2017-01-30T08:57:50.500Z,4.77
2017-01-30T08:58:31.198Z,4.8
2017-01-30T08:59:12.091Z,4.8
2017-01-30T08:59:52.894Z,4.82
2017-01-30T09:00:33.606Z,4.87
2017-01-30T09:01:14.359Z,4.84
2017-01-30T09:01:55.129Z,4.8
2017-01-30T09:02:35.878Z,4.8
2017-01-30T09:03:16.510Z,4.89
2017-01-30T09:03:58.277Z,4.89
2017-01-30T09:04:39.009Z,4.89
2017-01-30T09:05:19.613Z,4.9
2017-01-30T09:06:00.371Z,4.87
2017-01-30T09:06:40.963Z,4.93
2017-01-30T09:07:21.716Z,4.99
2017-01-30T09:08:02.590Z,4.94
2017-01-30T09:08:43.393Z,4.94
2017-01-30T09:09:24.093Z,4.97
2017-01-30T09:10:05.768Z,4.94
2017-01-30T09:10:46.411Z,4.99
2017-01-30T09:11:26.979Z,4.94
2017-01-30T09:12:07.657Z,4.96
2017-01-30T09:12:48.363Z,4.92
2017-01-30T09:13:28.957Z,5.04
2017-01-30T09:14:10.618Z,4.94
2017-01-30T09:14:51.317Z,4.93
2017-01-30T09:15:31.916Z,4.96
2017-01-30T09:16:12.579Z,5.1
2017-01-30T09:16:53.264Z,4.92
2017-01-30T09:17:33.805Z,5.04
2017-01-30T09:18:14.397Z,4.9
2017-01-30T09:18:55.057Z,4.99
2017-01-30T09:19:35.650Z,5.05
2017-01-30T09:20:16.251Z,5.08
2017-01-30T09:20:56.983Z,5.11
2017-01-30T09:21:38.683Z,5.08
2017-01-30T09:22:19.389Z,5.04
2017-01-30T09:23:00.028Z,5.15
2017-01-30T09:23:41.849Z,5.15
2017-01-30T09:24:22.574Z,5.2
2017-01-30T09:25:03.291Z,5.21
2017-01-30T09:25:44.005Z,5.17
2017-01-30T09:26:24.586Z,5.25
2017-01-30T09:27:05.239Z,5.26
2017-01-30T09:27:45.894Z,5.23
2017-01-30T09:28:26.441Z,5.29
2017-01-30T09:29:07.128Z,5.18
2017-01-30T09:29:47.747Z,5.21
2017-01-30T09:30:28.296Z,5.2
2017-01-30T09:31:08.986Z,5.21
2017-01-30T09:31:49.733Z,5.25
2017-01-30T09:32:30.359Z,5.26
2017-01-30T09:33:10.917Z,5.23